Time;durP1;ratioP1;P1;durP2;ratioP2;P2;SDS_P1;SDS_P2;PMS_P1;PMS_P2;Temp;Humidity;BMP_temperature;BMP_pressure;BME280_temperature;BME280_humidity;BME280_pressure;Samples;Min_cycle;Max_cycle;Signal;HPM_P1;HPM_P2
2022/10/10 00:00:12;;;;;;;9.02;6.60;;;10.10;99.90;;;;;;5004490;28;20616;-84
2022/10/10 00:02:38;;;;;;;10.30;7.22;;;10.20;99.90;;;;;;5021602;28;20040;-84
2022/10/10 00:05:04;;;;;;;12.73;6.85;;;10.10;99.90;;;;;;5021284;28;20029;-84
2022/10/10 00:07:29;;;;;;;12.88;7.43;;;10.20;99.90;;;;;;5019546;28;20385;-84
2022/10/10 00:09:55;;;;;;;10.95;7.38;;;10.20;99.90;;;;;;5020031;28;20026;-84
2022/10/10 00:12:20;;;;;;;8.77;6.03;;;10.20;99.90;;;;;;5029295;28;20370;-85
2022/10/10 00:14:46;;;;;;;9.15;6.13;;;10.30;99.90;;;;;;5021285;28;20028;-85
2022/10/10 00:17:12;;;;;;;6.82;5.25;;;10.30;99.90;;;;;;5039905;28;20018;-85
2022/10/10 00:19:37;;;;;;;9.52;6.60;;;10.40;99.90;;;;;;5039391;28;20026;-84
2022/10/10 00:22:03;;;;;;;9.13;6.70;;;10.40;99.90;;;;;;5039362;28;20022;-83
2022/10/10 00:24:29;;;;;;;10.80;7.38;;;10.40;99.90;;;;;;5026074;28;20044;-85
2022/10/10 00:26:54;;;;;;;10.43;6.90;;;10.40;99.90;;;;;;5041498;28;20606;-86
2022/10/10 00:29:20;;;;;;;9.23;7.18;;;10.40;99.90;;;;;;5038947;28;20465;-85
2022/10/10 00:31:45;;;;;;;11.50;7.45;;;10.40;99.90;;;;;;5045235;28;20041;-85
2022/10/10 00:34:11;;;;;;;9.85;6.78;;;10.40;99.90;;;;;;5022232;28;20045;-85
2022/10/10 00:36:37;;;;;;;9.80;6.75;;;10.40;99.90;;;;;;5020145;28;20033;-86
2022/10/10 00:39:03;;;;;;;8.40;6.53;;;10.40;99.90;;;;;;5024563;28;20034;-85
2022/10/10 00:41:28;;;;;;;11.57;7.90;;;10.50;99.90;;;;;;5031251;28;20494;-83
2022/10/10 00:44:11;;;;;;;12.23;7.20;;;10.50;99.90;;;;;;5011417;28;20101;-84
2022/10/10 00:46:37;;;;;;;;;;;10.50;99.90;;;;;;5021788;28;20191;-86
2022/10/10 00:49:06;;;;;;;11.77;7.75;;;10.60;99.90;;;;;;4998898;28;20331;-85
2022/10/10 00:51:32;;;;;;;11.32;7.85;;;10.50;99.90;;;;;;5018777;28;20025;-86
2022/10/10 00:54:02;;;;;;;10.50;7.60;;;10.50;99.90;;;;;;5036055;28;20030;-85
2022/10/10 00:56:34;;;;;;;12.15;8.45;;;10.50;99.90;;;;;;5038187;28;20022;-85
2022/10/10 00:59:03;;;;;;;13.73;8.90;;;10.50;99.90;;;;;;5038954;28;20020;-86
2022/10/10 01:01:29;;;;;;;11.73;8.38;;;10.50;99.90;;;;;;5040244;28;20032;-86
2022/10/10 01:03:59;;;;;;;12.63;8.40;;;10.60;99.90;;;;;;5032601;28;20029;-85
2022/10/10 01:06:25;;;;;;;10.15;7.43;;;10.50;99.90;;;;;;5016564;28;20048;-84
2022/10/10 01:08:52;;;;;;;10.40;7.70;;;10.60;99.90;;;;;;5004444;28;20030;-86
2022/10/10 01:11:21;;;;;;;20.88;13.73;;;10.60;99.90;;;;;;5018758;28;20049;-85
2022/10/10 01:14:08;;;;;;;17.70;11.23;;;10.70;99.90;;;;;;5003713;28;20018;-86
2022/10/10 01:16:58;;;;;;;18.45;12.10;;;10.60;99.90;;;;;;5019026;28;20056;-85
2022/10/10 01:19:51;;;;;;;19.23;12.75;;;10.60;99.90;;;;;;5037770;28;20014;-86
2022/10/10 01:22:51;;;;;;;14.25;10.07;;;10.60;99.90;;;;;;5019607;28;20104;-84
2022/10/10 01:25:28;;;;;;;19.33;11.60;;;10.60;99.90;;;;;;5038663;28;20033;-84
2022/10/10 01:28:20;;;;;;;18.50;12.95;;;10.60;99.90;;;;;;5029871;28;20064;-85
2022/10/10 01:30:47;;;;;;;18.95;13.23;;;10.60;99.90;;;;;;5038710;28;20025;-87
2022/10/10 01:33:16;;;;;;;21.45;13.93;;;10.60;99.90;;;;;;5041138;28;20029;-85
2022/10/10 01:35:56;;;;;;;17.60;12.30;;;10.60;99.90;;;;;;5010904;28;20088;-83
2022/10/10 01:38:49;;;;;;;18.45;12.63;;;10.60;99.90;;;;;;5002620;28;20018;-85
2022/10/10 01:41:18;;;;;;;21.55;12.70;;;10.70;99.90;;;;;;5020179;28;20053;-83
2022/10/10 01:43:44;;;;;;;21.23;12.93;;;10.70;99.90;;;;;;5002241;28;20037;-85
2022/10/10 01:46:13;;;;;;;22.40;12.80;;;10.60;99.90;;;;;;5034052;28;20044;-85
2022/10/10 01:48:39;;;;;;;17.23;11.85;;;10.70;99.90;;;;;;5039383;28;20379;-84
2022/10/10 01:51:25;;;;;;;16.38;12.43;;;10.70;99.90;;;;;;5020613;28;20040;-83
2022/10/10 01:54:03;;;;;;;15.07;10.10;;;10.70;99.90;;;;;;5030929;28;20168;-83
2022/10/10 01:56:47;;;;;;;14.90;10.50;;;10.70;99.90;;;;;;5000924;28;20049;-83
2022/10/10 01:59:45;;;;;;;17.83;13.38;;;10.70;99.90;;;;;;5000350;28;20104;-84
2022/10/10 02:02:43;;;;;;;15.45;11.50;;;10.80;99.90;;;;;;5007908;28;20045;-84
2022/10/10 02:05:22;;;;;;;16.45;11.48;;;10.70;99.90;;;;;;5036150;28;20021;-84
2022/10/10 02:08:05;;;;;;;14.82;11.05;;;10.70;99.90;;;;;;5021696;28;20025;-83
2022/10/10 02:10:35;;;;;;;18.48;12.75;;;10.80;99.90;;;;;;5023359;28;20148;-85
2022/10/10 02:13:02;;;;;;;14.75;11.00;;;10.80;99.90;;;;;;5010703;28;20034;-85
2022/10/10 02:15:41;;;;;;;21.38;14.27;;;10.80;99.90;;;;;;5021003;28;20111;-84
2022/10/10 02:18:09;;;;;;;16.70;12.52;;;10.80;99.90;;;;;;5022137;28;20442;-85
2022/10/10 02:20:35;;;;;;;13.80;10.63;;;10.80;99.90;;;;;;5023675;28;20059;-84
2022/10/10 02:23:02;;;;;;;14.20;10.55;;;10.80;99.90;;;;;;5032233;28;20118;-84
2022/10/10 02:25:33;;;;;;;13.63;9.77;;;10.80;99.90;;;;;;5022064;28;20026;-85
2022/10/10 02:28:05;;;;;;;11.88;9.43;;;10.80;99.90;;;;;;5003813;28;20030;-84
2022/10/10 02:30:34;;;;;;;17.83;9.90;;;10.80;99.90;;;;;;5022365;28;20085;-85
2022/10/10 02:33:02;;;;;;;14.95;12.48;;;10.80;99.90;;;;;;5028931;28;20430;-85
2022/10/10 02:35:33;;;;;;;15.40;12.95;;;10.80;99.90;;;;;;5040830;28;20029;-85
2022/10/10 02:38:00;;;;;;;14.82;11.30;;;10.80;99.90;;;;;;5023055;28;20022;-85
2022/10/10 02:40:29;;;;;;;15.43;12.27;;;10.70;99.90;;;;;;5023549;28;20053;-85
2022/10/10 02:42:58;;;;;;;14.35;11.77;;;10.60;99.90;;;;;;5039332;28;20029;-86
2022/10/10 02:45:27;;;;;;;15.27;11.68;;;10.60;99.90;;;;;;5061768;22;20418;-78
2022/10/10 02:47:53;;;;;;;12.07;10.52;;;10.60;99.90;;;;;;5030269;28;20090;-81
2022/10/10 02:50:20;;;;;;;14.48;10.88;;;10.60;99.90;;;;;;5007333;28;20042;-82
2022/10/10 02:52:45;;;;;;;16.10;12.77;;;10.60;99.90;;;;;;5020125;28;20044;-82
2022/10/10 02:55:11;;;;;;;17.13;11.40;;;10.60;99.90;;;;;;5022716;28;20030;-82
2022/10/10 02:57:37;;;;;;;11.55;9.68;;;10.60;99.90;;;;;;5023075;28;20445;-80
2022/10/10 03:00:04;;;;;;;15.00;10.73;;;10.60;99.90;;;;;;5031174;28;20068;-81
2022/10/10 03:02:30;;;;;;;12.32;9.55;;;10.60;99.90;;;;;;5030107;28;20032;-82
2022/10/10 03:04:57;;;;;;;11.52;9.68;;;10.60;99.90;;;;;;5007924;28;20491;-82
2022/10/10 03:07:23;;;;;;;8.75;7.85;;;10.60;99.90;;;;;;5023835;28;20466;-81
2022/10/10 03:09:50;;;;;;;8.27;7.10;;;10.70;99.90;;;;;;5006473;28;20030;-80
2022/10/10 03:12:16;;;;;;;10.18;8.13;;;10.70;99.90;;;;;;5037668;28;20105;-79
2022/10/10 03:14:42;;;;;;;10.75;8.95;;;10.70;99.90;;;;;;5022389;28;20042;-82
2022/10/10 03:17:08;;;;;;;13.00;10.10;;;10.70;99.90;;;;;;5002258;28;20092;-80
2022/10/10 03:19:33;;;;;;;17.17;10.93;;;10.60;99.90;;;;;;5015987;28;20133;-80
2022/10/10 03:21:59;;;;;;;11.02;8.80;;;10.70;99.90;;;;;;5005123;28;20066;-80
2022/10/10 03:24:25;;;;;;;10.27;8.45;;;10.60;99.90;;;;;;5006183;28;20037;-81
2022/10/10 03:26:51;;;;;;;10.90;9.45;;;10.70;99.90;;;;;;5003527;28;20423;-80
2022/10/10 03:29:16;;;;;;;13.52;10.30;;;10.70;99.90;;;;;;5023300;28;20105;-81
2022/10/10 03:31:42;;;;;;;14.73;11.48;;;10.70;99.90;;;;;;5027528;28;20030;-81
2022/10/10 03:34:08;;;;;;;12.98;9.18;;;10.80;99.90;;;;;;5036808;28;20044;-80
2022/10/10 03:36:33;;;;;;;12.48;9.23;;;10.80;99.90;;;;;;5019855;28;20121;-79
2022/10/10 03:38:59;;;;;;;13.20;9.93;;;10.80;99.90;;;;;;5011441;28;20030;-81
2022/10/10 03:41:25;;;;;;;14.98;10.60;;;10.80;99.90;;;;;;5036169;28;20022;-78
2022/10/10 03:43:50;;;;;;;13.60;10.05;;;10.80;99.90;;;;;;5037205;28;20041;-79
2022/10/10 03:46:16;;;;;;;14.95;10.05;;;10.80;99.90;;;;;;5036479;28;20018;-78
2022/10/10 03:48:42;;;;;;;12.95;9.85;;;10.90;99.90;;;;;;5036892;28;20042;-80
2022/10/10 03:51:07;;;;;;;11.93;9.52;;;10.80;99.90;;;;;;5006817;28;20561;-82
2022/10/10 03:53:33;;;;;;;13.80;10.55;;;10.90;99.90;;;;;;4984784;28;20030;-82
2022/10/10 03:55:58;;;;;;;14.40;9.70;;;10.80;99.90;;;;;;5020670;28;20025;-79
2022/10/10 03:58:24;;;;;;;12.63;9.73;;;10.80;99.90;;;;;;5006638;28;20033;-81
2022/10/10 04:00:55;;;;;;;14.25;11.40;;;10.90;99.90;;;;;;5015707;28;20028;-78
2022/10/10 04:03:21;;;;;;;16.50;11.43;;;10.90;99.90;;;;;;4999743;28;20080;-78
2022/10/10 04:05:46;;;;;;;13.50;10.27;;;10.90;99.90;;;;;;5019225;28;20037;-79
2022/10/10 04:08:12;;;;;;;12.07;9.48;;;10.90;99.90;;;;;;5019599;28;20034;-81
2022/10/10 04:10:38;;;;;;;13.05;9.27;;;10.80;99.90;;;;;;5024712;28;20036;-82
2022/10/10 04:13:04;;;;;;;14.73;10.13;;;10.80;99.90;;;;;;5007277;28;20052;-82
2022/10/10 04:15:31;;;;;;;12.07;9.80;;;10.80;99.90;;;;;;5027544;28;20030;-82
2022/10/10 04:17:57;;;;;;;10.35;8.60;;;10.70;99.90;;;;;;5025847;28;20018;-79
2022/10/10 04:20:24;;;;;;;10.75;8.63;;;10.70;99.90;;;;;;5015758;28;20108;-84
2022/10/10 04:22:50;;;;;;;10.95;8.88;;;10.80;99.90;;;;;;5001663;28;20034;-83
2022/10/10 04:25:16;;;;;;;10.63;8.82;;;10.70;99.90;;;;;;5001522;28;20037;-83
2022/10/10 04:27:42;;;;;;;10.63;7.93;;;10.70;99.90;;;;;;5017625;28;20025;-81
2022/10/10 04:30:09;;;;;;;11.30;8.65;;;10.70;99.90;;;;;;5044151;28;20394;-81
2022/10/10 04:32:36;;;;;;;11.55;8.80;;;10.70;99.90;;;;;;5042753;28;20053;-80
2022/10/10 04:35:02;;;;;;;11.00;8.38;;;10.70;99.90;;;;;;5042091;28;20028;-81
2022/10/10 04:37:28;;;;;;;12.73;8.40;;;10.70;99.90;;;;;;5031774;28;20030;-82
2022/10/10 04:39:54;;;;;;;9.80;7.68;;;10.70;99.90;;;;;;5024318;28;20026;-81
2022/10/10 04:42:20;;;;;;;9.68;7.15;;;10.60;99.90;;;;;;5025410;28;20040;-82
2022/10/10 04:44:45;;;;;;;9.15;7.47;;;10.60;99.90;;;;;;5023182;28;20033;-83
2022/10/10 04:47:12;;;;;;;11.07;8.18;;;10.50;99.90;;;;;;5023586;28;20060;-82
2022/10/10 04:49:37;;;;;;;7.25;6.13;;;10.50;99.90;;;;;;5000143;28;20030;-82
2022/10/10 04:52:03;;;;;;;6.82;5.82;;;10.40;99.90;;;;;;5020079;28;20032;-83
2022/10/10 04:54:29;;;;;;;5.57;5.07;;;10.30;99.90;;;;;;5022993;28;20026;-81
2022/10/10 04:56:55;;;;;;;6.28;5.65;;;10.30;99.90;;;;;;5025287;28;20044;-81
2022/10/10 04:59:20;;;;;;;7.22;6.32;;;10.20;99.90;;;;;;5003303;28;20450;-82
2022/10/10 05:01:46;;;;;;;7.07;5.28;;;10.20;99.90;;;;;;5010729;28;20048;-82
2022/10/10 05:04:13;;;;;;;7.32;5.70;;;10.20;99.90;;;;;;5004438;28;20018;-82
2022/10/10 05:06:38;;;;;;;7.90;6.53;;;10.10;99.90;;;;;;5021146;28;20046;-81
2022/10/10 05:09:04;;;;;;;7.82;6.20;;;10.10;99.90;;;;;;5021543;28;20022;-82
2022/10/10 05:11:30;;;;;;;6.00;5.00;;;9.90;99.90;;;;;;5025209;28;20125;-79
2022/10/10 05:13:55;;;;;;;7.57;5.97;;;9.90;99.90;;;;;;5027052;28;20101;-82
2022/10/10 05:16:21;;;;;;;6.38;4.90;;;9.80;99.90;;;;;;5026706;28;20038;-83
2022/10/10 05:18:47;;;;;;;5.30;4.80;;;9.80;99.90;;;;;;5022049;28;20026;-81
2022/10/10 05:21:12;;;;;;;5.05;4.55;;;9.70;99.90;;;;;;5018996;28;20032;-80
2022/10/10 05:23:40;;;;;;;5.32;4.82;;;9.70;99.90;;;;;;5023171;28;20026;-81
2022/10/10 05:26:06;;;;;;;6.22;4.47;;;9.60;99.90;;;;;;5023712;28;20528;-82
2022/10/10 05:28:34;;;;;;;5.57;4.78;;;9.60;99.90;;;;;;5016880;28;20037;-80
2022/10/10 05:31:00;;;;;;;5.25;4.28;;;9.60;99.90;;;;;;5008598;28;20179;-82
2022/10/10 05:33:25;;;;;;;5.55;4.38;;;9.60;99.90;;;;;;5027901;28;20492;-82
2022/10/10 05:35:51;;;;;;;4.32;3.92;;;9.60;99.90;;;;;;5015334;28;20041;-78
2022/10/10 05:38:17;;;;;;;5.05;4.50;;;9.60;99.90;;;;;;5037708;28;20040;-78
2022/10/10 05:40:43;;;;;;;4.32;3.92;;;9.70;99.90;;;;;;5048393;28;20037;-78
2022/10/10 05:43:09;;;;;;;5.28;4.38;;;9.70;99.90;;;;;;5021687;28;20030;-78
2022/10/10 05:45:35;;;;;;;4.20;3.58;;;9.70;99.90;;;;;;5028291;28;20037;-82
2022/10/10 05:48:01;;;;;;;4.18;3.47;;;9.70;99.90;;;;;;5023265;28;20029;-81
2022/10/10 05:50:37;;;;;;;4.70;3.17;;;9.80;99.90;;;;;;5014515;28;20034;-82
2022/10/10 05:53:03;;;;;;;4.18;3.63;;;9.80;99.90;;;;;;5021821;28;20108;-81
2022/10/10 05:55:29;;;;;;;3.60;3.00;;;9.90;99.90;;;;;;5005366;28;20030;-81
2022/10/10 05:57:55;;;;;;;4.28;3.72;;;9.90;99.90;;;;;;5003912;28;20101;-82
2022/10/10 06:00:21;;;;;;;4.93;4.32;;;10.00;99.90;;;;;;5023705;28;20352;-81
2022/10/10 06:02:47;;;;;;;5.70;3.88;;;10.00;99.90;;;;;;5008762;28;20022;-81
2022/10/10 06:05:12;;;;;;;4.15;3.58;;;10.00;99.90;;;;;;5016583;28;20026;-81
2022/10/10 06:07:43;;;;;;;4.22;3.15;;;10.10;99.90;;;;;;5031501;28;20073;-80
2022/10/10 06:10:09;;;;;;;3.67;3.38;;;10.10;99.90;;;;;;5007258;28;20034;-82
2022/10/10 06:12:35;;;;;;;3.85;3.47;;;10.20;99.90;;;;;;5026096;28;20018;-82
2022/10/10 06:15:01;;;;;;;5.18;3.40;;;10.20;99.90;;;;;;5022360;28;20025;-83
2022/10/10 06:17:26;;;;;;;6.03;3.53;;;10.30;99.90;;;;;;5023868;28;20029;-83
2022/10/10 06:19:52;;;;;;;3.50;3.17;;;10.30;99.90;;;;;;5022553;28;20078;-82
2022/10/10 06:22:18;;;;;;;4.63;3.85;;;10.40;99.90;;;;;;5019389;28;20029;-82
2022/10/10 06:24:43;;;;;;;3.90;3.50;;;10.40;99.90;;;;;;5023282;28;20037;-81
2022/10/10 06:27:09;;;;;;;4.38;3.38;;;10.50;99.90;;;;;;5029559;28;20030;-83
2022/10/10 06:29:34;;;;;;;4.07;3.67;;;10.60;99.90;;;;;;5025194;28;20038;-83
2022/10/10 06:32:00;;;;;;;3.72;3.28;;;10.60;99.90;;;;;;5024140;28;20458;-84
2022/10/10 06:34:26;;;;;;;3.28;3.00;;;10.70;99.90;;;;;;5014915;28;20076;-79
2022/10/10 06:36:52;;;;;;;5.10;3.08;;;10.80;99.90;;;;;;5035575;28;20030;-80
2022/10/10 06:39:17;;;;;;;3.03;2.72;;;10.90;99.90;;;;;;5035578;28;20037;-82
2022/10/10 06:41:47;;;;;;;3.00;2.70;;;11.10;99.90;;;;;;5031833;28;20034;-83
2022/10/10 06:44:12;;;;;;;3.00;2.30;;;11.30;99.90;;;;;;5028717;28;20056;-82
2022/10/10 06:46:38;;;;;;;2.88;2.53;;;11.40;99.90;;;;;;5027303;28;20034;-81
2022/10/10 06:49:04;;;;;;;2.85;2.50;;;11.60;99.90;;;;;;5000148;28;20387;-82
2022/10/10 06:51:30;;;;;;;3.42;3.00;;;11.90;99.90;;;;;;5022409;28;20356;-82
2022/10/10 06:53:57;;;;;;;3.65;2.20;;;12.00;99.90;;;;;;5030208;28;20022;-79
2022/10/10 06:56:24;;;;;;;2.30;2.10;;;12.20;99.90;;;;;;5031378;28;20060;-82
2022/10/10 06:58:50;;;;;;;1.95;1.77;;;12.30;99.90;;;;;;5026311;28;20072;-82
2022/10/10 07:01:18;;;;;;;4.18;2.10;;;12.50;99.90;;;;;;5008349;28;20447;-82
2022/10/10 07:03:44;;;;;;;2.40;2.20;;;12.70;99.90;;;;;;5008478;28;20041;-83
2022/10/10 07:06:11;;;;;;;2.35;1.70;;;12.80;99.90;;;;;;5008499;28;20030;-82
2022/10/10 07:08:38;;;;;;;2.10;1.90;;;13.00;99.90;;;;;;5023140;28;20022;-81
2022/10/10 07:11:04;;;;;;;2.40;2.10;;;13.10;99.90;;;;;;5025937;28;20037;-81
2022/10/10 07:13:30;;;;;;;1.90;1.70;;;13.10;99.90;;;;;;5009634;28;20018;-82
2022/10/10 07:15:56;;;;;;;3.33;1.85;;;13.20;99.90;;;;;;5023108;28;20037;-83
2022/10/10 07:18:21;;;;;;;2.67;1.90;;;13.30;99.90;;;;;;5006414;28;20029;-82
2022/10/10 07:20:48;;;;;;;4.03;1.48;;;13.30;99.90;;;;;;5024950;28;20056;-81
2022/10/10 07:23:14;;;;;;;2.08;1.73;;;13.40;99.90;;;;;;5029690;28;20025;-82
2022/10/10 07:25:42;;;;;;;3.45;1.80;;;13.40;99.90;;;;;;5030095;28;20076;-82
2022/10/10 07:28:09;;;;;;;2.10;1.50;;;13.60;99.90;;;;;;5026345;28;20033;-84
2022/10/10 07:30:45;;;;;;;1.58;1.48;;;13.70;99.90;;;;;;5008613;28;20505;-83
2022/10/10 07:33:14;;;;;;;1.90;1.70;;;13.80;99.90;;;;;;5025155;28;20017;-82
2022/10/10 07:35:40;;;;;;;3.50;1.63;;;13.90;99.90;;;;;;5023522;28;20018;-83
2022/10/10 07:38:06;;;;;;;2.47;1.52;;;14.10;99.90;;;;;;5024201;28;20498;-82
2022/10/10 07:40:32;;;;;;;2.38;1.48;;;14.20;99.90;;;;;;5010412;28;20044;-80
2022/10/10 07:42:58;;;;;;;3.08;1.98;;;14.20;99.90;;;;;;5010708;28;20110;-85
2022/10/10 07:45:24;;;;;;;2.50;1.70;;;14.40;99.90;;;;;;4998636;28;20015;-78
2022/10/10 07:47:51;;;;;;;5.10;1.85;;;14.50;99.30;;;;;;5012641;28;20042;-83
2022/10/10 07:50:17;;;;;;;1.73;1.50;;;14.60;99.00;;;;;;5028510;28;20030;-84
2022/10/10 07:52:43;;;;;;;1.20;1.10;;;14.70;98.50;;;;;;5025929;28;20037;-82
2022/10/10 07:55:09;;;;;;;1.63;1.52;;;14.90;98.20;;;;;;5027467;28;20034;-83
2022/10/10 07:57:35;;;;;;;2.10;1.50;;;15.00;97.80;;;;;;5015234;28;20034;-83
2022/10/10 08:00:09;;;;;;;2.35;1.77;;;15.10;97.50;;;;;;5008741;28;20029;-84
2022/10/10 08:02:34;;;;;;;4.43;2.45;;;15.20;96.90;;;;;;4991759;28;20435;-82
2022/10/10 08:05:08;;;;;;;2.35;1.90;;;15.30;96.60;;;;;;5005691;28;20026;-83
2022/10/10 08:07:34;;;;;;;2.15;1.95;;;15.30;96.40;;;;;;4988093;28;20038;-83
2022/10/10 08:10:01;;;;;;;2.08;1.75;;;15.50;96.10;;;;;;4987463;28;20033;-83
2022/10/10 08:12:27;;;;;;;1.63;1.48;;;15.50;95.60;;;;;;4996395;28;20019;-81
2022/10/10 08:14:53;;;;;;;3.28;2.10;;;15.60;95.30;;;;;;5014014;28;20014;-81
2022/10/10 08:17:19;;;;;;;3.22;1.33;;;15.70;95.20;;;;;;5026795;28;20045;-82
2022/10/10 08:19:44;;;;;;;1.40;1.30;;;15.80;94.90;;;;;;5029688;28;20058;-81
2022/10/10 08:22:11;;;;;;;2.83;1.38;;;15.90;94.70;;;;;;5031330;28;20026;-81
2022/10/10 08:24:36;;;;;;;6.57;1.60;;;16.00;94.40;;;;;;5032116;28;20033;-79
2022/10/10 08:27:02;;;;;;;2.97;1.85;;;16.10;94.00;;;;;;5030268;28;20022;-79
2022/10/10 08:29:28;;;;;;;1.70;1.40;;;16.10;93.80;;;;;;5011131;28;20053;-79
2022/10/10 08:31:53;;;;;;;2.88;1.80;;;16.30;93.60;;;;;;5011864;28;20057;-80
2022/10/10 08:34:19;;;;;;;5.10;1.55;;;16.40;92.90;;;;;;5011839;28;20026;-79
2022/10/10 08:36:45;;;;;;;9.98;2.60;;;16.50;92.70;;;;;;5011374;28;20027;-79
2022/10/10 08:39:11;;;;;;;5.45;2.22;;;16.60;92.30;;;;;;5010538;28;20022;-79
2022/10/10 08:41:42;;;;;;;5.63;2.15;;;16.60;92.10;;;;;;5012712;28;20022;-79
2022/10/10 08:44:22;;;;;;;4.07;1.55;;;16.70;91.70;;;;;;5011722;28;20129;-79
2022/10/10 08:46:57;;;;;;;2.65;1.70;;;16.80;91.60;;;;;;5059914;22;20041;-79
2022/10/10 08:49:43;;;;;;;2.10;1.35;;;17.00;91.40;;;;;;5059586;28;20022;-81
2022/10/10 08:52:34;;;;;;;4.28;1.45;;;17.10;91.00;;;;;;5042144;28;20216;-82
2022/10/10 08:55:02;;;;;;;3.40;1.73;;;17.10;90.60;;;;;;5059465;28;20041;-81
2022/10/10 08:57:32;;;;;;;1.80;1.55;;;17.20;90.50;;;;;;5049192;28;20570;-81
2022/10/10 09:00:06;;;;;;;3.97;1.73;;;17.30;90.40;;;;;;5064177;28;20021;-81
2022/10/10 09:02:38;;;;;;;1.90;1.58;;;17.50;90.10;;;;;;5055142;28;20053;-80
2022/10/10 09:05:06;;;;;;;1.65;1.40;;;17.60;89.10;;;;;;5019320;28;20390;-83
2022/10/10 09:07:50;;;;;;;3.05;1.50;;;17.60;88.80;;;;;;5039519;28;20032;-82
2022/10/10 09:10:20;;;;;;;1.77;1.23;;;17.60;88.80;;;;;;5042815;28;20025;-81
2022/10/10 09:13:26;;;;;;;1.95;1.33;;;17.70;88.10;;;;;;5047062;28;20029;-81
2022/10/10 09:16:02;;;;;;;2.45;1.52;;;17.90;87.60;;;;;;5040024;28;20033;-81
2022/10/10 09:18:43;;;;;;;4.30;1.60;;;18.20;86.40;;;;;;5058639;28;20022;-81
2022/10/10 09:21:14;;;;;;;5.22;2.15;;;18.30;85.50;;;;;;5164737;22;20153;-82
2022/10/10 09:24:09;;;;;;;6.93;2.38;;;18.50;84.50;;;;;;5048675;28;20017;-83
2022/10/10 09:26:39;;;;;;;4.47;1.90;;;18.60;84.10;;;;;;5046744;28;20105;-81
2022/10/10 09:29:34;;;;;;;3.67;1.85;;;18.80;83.50;;;;;;5052804;28;20031;-83
2022/10/10 09:32:31;;;;;;;2.50;2.00;;;19.00;82.70;;;;;;4977155;28;20066;-82
2022/10/10 09:35:13;;;;;;;3.28;2.15;;;19.20;81.50;;;;;;5033787;28;20098;-80
2022/10/10 09:37:40;;;;;;;4.43;1.95;;;19.30;81.30;;;;;;5054008;28;20047;-82
2022/10/10 09:40:21;;;;;;;2.70;1.60;;;19.30;79.80;;;;;;5039591;28;20052;-80
2022/10/10 09:42:47;;;;;;;2.17;1.53;;;19.40;79.70;;;;;;5056429;28;20036;-82
2022/10/10 09:45:33;;;;;;;1.92;1.17;;;19.40;79.80;;;;;;5057087;28;20109;-81
2022/10/10 09:47:58;;;;;;;2.72;1.20;;;19.50;80.00;;;;;;5056341;28;20028;-82
2022/10/10 09:50:25;;;;;;;10.65;2.20;;;19.60;79.80;;;;;;5027018;28;20025;-80
2022/10/10 09:52:51;;;;;;;11.68;2.55;;;19.70;79.20;;;;;;5042973;28;20056;-80
2022/10/10 09:55:29;;;;;;;4.68;1.95;;;19.90;78.00;;;;;;5046086;28;20056;-80
2022/10/10 09:58:00;;;;;;;4.03;2.00;;;20.00;77.10;;;;;;5017163;28;20049;-81
2022/10/10 10:00:36;;;;;;;4.25;1.60;;;20.00;77.10;;;;;;5036474;28;20013;-81
2022/10/10 10:03:14;;;;;;;4.85;1.75;;;20.00;77.20;;;;;;5034830;28;20055;-83
2022/10/10 10:05:43;;;;;;;3.25;1.50;;;20.20;77.40;;;;;;5029358;28;20086;-83
2022/10/10 10:08:31;;;;;;;3.47;1.67;;;20.50;76.20;;;;;;5013555;28;20057;-84
2022/10/10 10:10:58;;;;;;;4.88;2.13;;;20.70;74.30;;;;;;5040897;28;20033;-81
2022/10/10 10:13:27;;;;;;;2.22;1.52;;;20.80;74.00;;;;;;5028956;28;20021;-83
2022/10/10 10:16:10;;;;;;;7.22;2.47;;;21.00;74.00;;;;;;5010804;28;20029;-81
2022/10/10 10:18:46;;;;;;;11.93;1.83;;;21.10;73.00;;;;;;5041071;28;20056;-82
2022/10/10 10:21:20;;;;;;;2.40;1.30;;;21.00;72.20;;;;;;5045219;28;20102;-80
2022/10/10 10:23:53;;;;;;;2.08;1.20;;;20.90;73.00;;;;;;5022398;28;20049;-82
2022/10/10 10:26:40;;;;;;;7.63;2.80;;;21.00;73.50;;;;;;5029631;28;20029;-83
2022/10/10 10:29:32;;;;;;;5.97;2.10;;;21.10;72.30;;;;;;5035459;28;20113;-81
2022/10/10 10:32:24;;;;;;;;;;;21.10;72.20;;;;;;5036588;28;20044;-82
2022/10/10 10:35:23;;;;;;;10.57;2.35;;;20.90;72.70;;;;;;5020592;28;19943;-80
2022/10/10 10:38:12;;;;;;;7.10;1.98;;;20.90;74.30;;;;;;5019319;28;20033;-81
2022/10/10 10:40:58;;;;;;;6.05;2.17;;;21.40;72.70;;;;;;5018359;28;20037;-82
2022/10/10 10:43:54;;;;;;;5.03;1.77;;;21.70;72.10;;;;;;5018654;28;20033;-82
2022/10/10 10:46:43;;;;;;;4.93;1.83;;;22.00;70.40;;;;;;5045109;28;20046;-81
2022/10/10 10:49:27;;;;;;;3.40;1.40;;;22.00;70.10;;;;;;5054012;28;20172;-81
2022/10/10 10:52:00;;;;;;;3.50;1.98;;;21.80;69.80;;;;;;5055243;28;20029;-83
2022/10/10 10:54:37;;;;;;;4.55;1.70;;;21.60;71.20;;;;;;5055827;28;20077;-81
2022/10/10 10:57:17;;;;;;;2.20;1.90;;;21.50;70.60;;;;;;5055531;28;20092;-82
2022/10/10 11:00:12;;;;;;;2.00;1.60;;;21.30;71.90;;;;;;5056057;28;20056;-81
2022/10/10 11:02:53;;;;;;;7.18;1.38;;;21.20;72.40;;;;;;5037433;28;20025;-82
2022/10/10 11:05:40;;;;;;;4.30;1.77;;;20.90;72.70;;;;;;5055980;28;20022;-80
2022/10/10 11:08:36;;;;;;;2.28;1.92;;;20.80;73.60;;;;;;5031394;28;20074;-82
2022/10/10 11:11:32;;;;;;;2.15;1.40;;;20.70;74.90;;;;;;5036907;28;20028;-79
2022/10/10 11:14:24;;;;;;;4.45;1.50;;;20.70;74.90;;;;;;5053177;28;20029;-79
2022/10/10 11:16:58;;;;;;;7.25;1.88;;;20.70;74.70;;;;;;5036279;28;20033;-82
2022/10/10 11:20:04;;;;;;;4.10;1.95;;;20.90;74.40;;;;;;5026780;28;20084;-84
2022/10/10 11:22:38;;;;;;;4.03;1.60;;;20.90;74.70;;;;;;5019700;28;20060;-82
2022/10/10 11:25:13;;;;;;;5.35;1.75;;;21.00;73.50;;;;;;5051118;28;20024;-81
2022/10/10 11:27:47;;;;;;;1.75;1.30;;;20.90;73.90;;;;;;5052466;28;20025;-80
2022/10/10 11:30:41;;;;;;;6.40;1.95;;;21.00;74.50;;;;;;5053312;28;20032;-79
2022/10/10 11:33:25;;;;;;;3.70;1.83;;;21.30;72.80;;;;;;5052291;28;20119;-81
2022/10/10 11:36:12;;;;;;;6.43;1.60;;;21.50;72.50;;;;;;5032510;28;20064;-84
2022/10/10 11:39:03;;;;;;;3.90;1.95;;;21.60;72.20;;;;;;5053953;28;20031;-81
2022/10/10 11:41:40;;;;;;;2.95;1.50;;;21.60;72.00;;;;;;5036237;28;20049;-83
2022/10/10 11:44:19;;;;;;;4.70;1.55;;;21.60;71.70;;;;;;5023641;28;20139;-85
2022/10/10 11:46:57;;;;;;;6.68;1.33;;;21.50;71.40;;;;;;5025205;28;20030;-84
2022/10/10 11:49:41;;;;;;;4.40;2.00;;;21.50;71.90;;;;;;5039898;28;20030;-84
2022/10/10 11:52:45;;;;;;;6.22;1.77;;;21.50;72.50;;;;;;5021802;28;20089;-84
2022/10/10 11:55:37;;;;;;;5.18;1.55;;;21.50;72.40;;;;;;5043887;28;20029;-84
2022/10/10 11:58:05;;;;;;;3.33;1.60;;;21.50;72.30;;;;;;5030124;28;20208;-81
2022/10/10 12:00:49;;;;;;;6.85;1.88;;;21.50;72.40;;;;;;5055379;28;20025;-79
2022/10/10 12:03:15;;;;;;;2.05;1.40;;;21.50;72.30;;;;;;5056205;28;20029;-81
2022/10/10 12:05:49;;;;;;;5.53;1.75;;;21.40;72.40;;;;;;5056340;28;20040;-82
2022/10/10 12:08:20;;;;;;;5.60;2.10;;;21.30;72.00;;;;;;5054896;28;20017;-80
2022/10/10 12:10:54;;;;;;;4.75;2.42;;;21.20;73.10;;;;;;5055222;28;20033;-80
2022/10/10 12:13:42;;;;;;;2.42;1.55;;;21.20;73.10;;;;;;5056274;28;20013;-81
2022/10/10 12:16:14;;;;;;;4.28;1.65;;;21.20;73.30;;;;;;5038234;28;20021;-80
2022/10/10 12:18:58;;;;;;;2.53;1.52;;;21.30;73.30;;;;;;5055872;28;20119;-81
2022/10/10 12:21:26;;;;;;;5.68;2.10;;;21.30;72.80;;;;;;5036035;28;20033;-83
2022/10/10 12:24:09;;;;;;;6.45;1.75;;;21.40;72.40;;;;;;5025144;28;20029;-86
2022/10/10 12:26:54;;;;;;;5.38;1.45;;;21.50;72.50;;;;;;5024540;28;20044;-82
2022/10/10 12:29:43;;;;;;;3.40;1.63;;;21.40;72.60;;;;;;5023993;28;20144;-88
2022/10/10 12:32:16;;;;;;;3.38;1.60;;;21.40;72.80;;;;;;5023632;28;20030;-85
2022/10/10 12:34:48;;;;;;;5.57;2.10;;;21.40;72.70;;;;;;5021563;28;20112;-85
2022/10/10 12:37:30;;;;;;;6.35;1.77;;;21.30;72.50;;;;;;5003469;28;20034;-84
2022/10/10 12:40:04;;;;;;;;;;;21.20;73.20;;;;;;5022909;28;20053;-85
2022/10/10 12:42:39;;;;;;;3.85;1.50;;;21.20;73.00;;;;;;5013671;28;19905;-86
2022/10/10 12:45:30;;;;;;;6.40;2.08;;;21.20;73.40;;;;;;5023854;28;20040;-83
2022/10/10 12:48:00;;;;;;;4.90;2.03;;;21.10;74.20;;;;;;5053837;28;20033;-80
2022/10/10 12:50:37;;;;;;;2.65;1.60;;;21.00;74.00;;;;;;5055044;28;20013;-80
2022/10/10 12:53:18;;;;;;;3.42;1.33;;;21.00;74.80;;;;;;5041210;28;20058;-83
2022/10/10 12:55:44;;;;;;;7.05;1.73;;;21.00;74.70;;;;;;5017826;28;20466;-84
2022/10/10 12:58:36;;;;;;;1.75;1.30;;;21.10;73.80;;;;;;5036398;28;20025;-83
2022/10/10 13:01:06;;;;;;;6.32;1.40;;;21.00;73.90;;;;;;4998860;28;20034;-83
2022/10/10 13:03:35;;;;;;;9.80;1.85;;;21.10;73.10;;;;;;5020841;28;20022;-85
2022/10/10 13:06:19;;;;;;;2.35;1.30;;;21.00;73.30;;;;;;5019682;28;20034;-85